Time;durP1;ratioP1;P1;durP2;ratioP2;P2;SDS_P1;SDS_P2;PMS_P1;PMS_P2;Temp;Humidity;BMP_temperature;BMP_pressure;BME280_temperature;BME280_humidity;BME280_pressure;Samples;Min_cycle;Max_cycle;Signal;HPM_P1;HPM_P2
2022/07/03 00:02:14;;;;;;;6.53;3.17;;;;;;;16.18;80.51;101536.38;5161636;29;20114;-75
2022/07/03 00:04:45;;;;;;;7.60;3.80;;;;;;;16.12;81.24;101540.03;5161376;29;20030;-76
2022/07/03 00:07:17;;;;;;;7.93;3.70;;;;;;;16.07;81.61;101541.94;5161237;29;20063;-75
2022/07/03 00:09:49;;;;;;;9.63;4.13;;;;;;;16.09;81.12;101541.91;5161471;29;20407;-75
2022/07/03 00:12:20;;;;;;;13.15;5.40;;;;;;;15.98;81.44;101543.00;5161811;29;20027;-75
2022/07/03 00:14:52;;;;;;;9.67;5.97;;;;;;;16.04;81.83;101542.84;5161748;29;20035;-75
2022/07/03 00:17:23;;;;;;;7.63;5.10;;;;;;;15.94;82.04;101546.59;5161442;29;20110;-75
2022/07/03 00:19:55;;;;;;;5.73;3.60;;;;;;;15.80;82.93;101552.16;5161261;29;20368;-74
2022/07/03 00:22:29;;;;;;;8.50;4.50;;;;;;;15.83;83.89;101567.88;5163445;29;20030;-74
2022/07/03 00:25:04;;;;;;;6.10;3.92;;;;;;;15.77;85.75;101577.66;5166111;29;20077;-74
2022/07/03 00:27:38;;;;;;;8.50;4.35;;;;;;;15.79;85.02;101576.75;5147217;29;20039;-74
2022/07/03 00:30:10;;;;;;;6.10;3.85;;;;;;;15.71;85.21;101575.13;5149157;29;20043;-75
2022/07/03 00:32:42;;;;;;;9.18;4.38;;;;;;;15.67;85.13;101577.81;5178895;29;20037;-75
2022/07/03 00:35:18;;;;;;;;;;;;;;;15.71;84.07;101581.25;5171202;29;20036;-74
2022/07/03 00:37:49;;;;;;;8.00;4.45;;;;;;;15.56;85.63;101579.81;5161455;29;19948;-74
2022/07/03 00:40:21;;;;;;;6.47;4.43;;;;;;;15.50;85.58;101583.44;5162280;28;20210;-74
2022/07/03 00:42:52;;;;;;;7.80;4.70;;;;;;;15.45;85.47;101582.66;5161552;29;20381;-74
2022/07/03 00:45:26;;;;;;;8.63;4.30;;;;;;;15.54;85.55;101575.50;5160968;29;20037;-73
2022/07/03 00:47:57;;;;;;;7.50;4.25;;;;;;;15.42;85.53;101584.47;5160691;29;20032;-74
2022/07/03 00:50:36;;;;;;;7.50;4.63;;;;;;;15.44;85.22;101580.06;5161087;29;20145;-74
2022/07/03 00:53:10;;;;;;;10.20;4.22;;;;;;;15.47;84.77;101580.00;5160884;29;20031;-75
2022/07/03 00:55:46;;;;;;;10.25;4.22;;;;;;;15.38;85.08;101575.81;5161645;29;20471;-75
2022/07/03 00:58:18;;;;;;;7.10;3.83;;;;;;;15.42;84.90;101571.34;5176399;29;20078;-75
2022/07/03 01:00:52;;;;;;;8.47;4.37;;;;;;;15.32;84.70;101574.16;5171692;29;20030;-75
2022/07/03 01:03:26;;;;;;;8.98;3.90;;;;;;;15.25;84.35;101569.06;5163078;29;20346;-75
2022/07/03 01:06:09;;;;;;;8.02;4.00;;;;;;;15.31;84.33;101574.19;5160729;29;20027;-75
2022/07/03 01:08:48;;;;;;;10.48;5.57;;;;;;;15.32;84.03;101570.66;5160834;29;20023;-74
2022/07/03 01:11:22;;;;;;;11.55;4.43;;;;;;;15.18;84.60;101565.69;5160639;29;20054;-74
2022/07/03 01:14:00;;;;;;;7.07;4.38;;;;;;;15.23;84.35;101566.47;5160439;29;20042;-75
2022/07/03 01:16:37;;;;;;;7.00;3.83;;;;;;;15.13;84.76;101572.78;5160077;29;20036;-74
2022/07/03 01:19:43;;;;;;;6.65;4.38;;;;;;;15.12;84.55;101569.31;5160258;29;20114;-74
2022/07/03 01:22:32;;;;;;;6.47;3.80;;;;;;;15.08;84.61;101577.25;5160177;29;20383;-74
2022/07/03 01:25:15;;;;;;;7.70;4.85;;;;;;;14.99;85.14;101582.69;5160153;29;20495;-75
2022/07/03 01:28:05;;;;;;;7.35;4.10;;;;;;;14.97;85.12;101579.22;5160012;29;20074;-74
2022/07/03 01:30:40;;;;;;;9.20;4.70;;;;;;;15.00;85.06;101577.41;5142660;29;20115;-75
2022/07/03 01:33:30;;;;;;;7.68;4.80;;;;;;;14.89;85.37;101580.25;5159869;29;20039;-75
2022/07/03 01:36:01;;;;;;;5.82;5.18;;;;;;;14.84;85.59;101571.56;5159575;29;20031;-74
2022/07/03 01:38:35;;;;;;;8.93;4.63;;;;;;;14.84;85.73;101568.94;5159928;29;20028;-74
2022/07/03 01:41:09;;;;;;;6.68;4.45;;;;;;;14.86;85.68;101564.56;5158710;29;20328;-75
2022/07/03 01:43:48;;;;;;;8.68;4.03;;;;;;;14.92;86.23;101572.31;5159683;29;20479;-74
2022/07/03 01:46:26;;;;;;;5.75;4.28;;;;;;;14.91;87.05;101567.09;5159730;29;20455;-75
2022/07/03 01:48:59;;;;;;;5.97;4.03;;;;;;;14.81;86.95;101574.28;5159453;29;20054;-75
2022/07/03 01:51:33;;;;;;;5.60;4.18;;;;;;;14.73;87.07;101570.88;5159115;28;20740;-75
2022/07/03 01:54:06;;;;;;;7.97;4.57;;;;;;;14.67;86.90;101576.28;5159309;29;20054;-75
2022/07/03 01:56:39;;;;;;;11.45;5.68;;;;;;;14.67;86.87;101571.88;5158959;29;20027;-74
2022/07/03 01:59:11;;;;;;;10.00;5.50;;;;;;;14.72;86.47;101575.28;5159165;29;20058;-74
2022/07/03 02:01:52;;;;;;;7.73;5.83;;;;;;;14.72;87.06;101569.19;5159634;29;20062;-74
2022/07/03 02:04:44;;;;;;;6.10;5.18;;;;;;;14.70;87.33;101571.81;5159179;29;20106;-75
2022/07/03 02:07:37;;;;;;;7.57;4.97;;;;;;;14.75;86.99;101559.47;5158959;29;20023;-74
2022/07/03 02:10:15;;;;;;;8.23;5.97;;;;;;;14.70;87.29;101555.19;5159088;29;20035;-74
2022/07/03 02:12:52;;;;;;;7.88;5.95;;;;;;;14.65;87.27;101557.03;5159150;29;20054;-73
2022/07/03 02:15:32;;;;;;;6.68;5.82;;;;;;;14.70;87.25;101552.56;5158915;29;20031;-74
2022/07/03 02:18:11;;;;;;;10.30;5.40;;;;;;;14.61;87.78;101555.38;5158783;29;20169;-73
2022/07/03 02:20:51;;;;;;;8.63;5.40;;;;;;;14.63;87.94;101546.56;5159095;29;20053;-74
2022/07/03 02:23:26;;;;;;;8.07;5.50;;;;;;;14.50;88.61;101545.88;5158828;29;20035;-74
2022/07/03 02:26:02;;;;;;;8.48;5.15;;;;;;;14.49;88.58;101548.53;5158960;29;20118;-74
2022/07/03 02:29:01;;;;;;;11.50;6.03;;;;;;;14.43;89.08;101560.00;5158608;29;20023;-74
2022/07/03 02:31:41;;;;;;;12.02;6.28;;;;;;;14.44;89.13;101550.38;5156948;29;20047;-74
2022/07/03 02:34:22;;;;;;;10.00;6.38;;;;;;;14.34;89.32;101554.91;5142602;29;20031;-74
2022/07/03 02:36:59;;;;;;;10.73;7.07;;;;;;;14.29;89.65;101561.97;5159051;29;20515;-74
2022/07/03 02:40:03;;;;;;;9.27;5.93;;;;;;;14.27;89.56;101562.00;5158544;29;20035;-74
2022/07/03 02:42:45;;;;;;;10.25;5.75;;;;;;;14.19;90.04;101562.13;5158428;29;20051;-74
2022/07/03 02:45:19;;;;;;;8.82;6.00;;;;;;;14.19;90.64;101561.25;5158739;29;20078;-74
2022/07/03 02:48:02;;;;;;;8.57;5.93;;;;;;;14.00;91.52;101560.66;5158607;29;20521;-74
2022/07/03 02:50:39;;;;;;;10.55;6.75;;;;;;;13.99;91.91;101561.53;5158564;29;20038;-74
2022/07/03 02:53:24;;;;;;;9.88;6.40;;;;;;;13.92;92.05;101557.28;5158477;29;20045;-73
2022/07/03 02:56:07;;;;;;;8.18;5.75;;;;;;;13.87;92.61;101557.34;5158231;29;20027;-73
2022/07/03 02:58:53;;;;;;;8.18;5.80;;;;;;;13.96;92.28;101548.47;5158672;29;20378;-74
2022/07/03 03:01:36;;;;;;;9.50;6.28;;;;;;;13.83;92.42;101545.19;5158347;29;20027;-74
2022/07/03 03:04:22;;;;;;;10.70;6.28;;;;;;;13.76;93.12;101551.41;5165929;28;20037;-73
2022/07/03 03:07:17;;;;;;;8.05;6.18;;;;;;;13.70;93.04;101551.47;5162162;29;20034;-73
2022/07/03 03:09:48;;;;;;;9.35;5.88;;;;;;;13.69;92.80;101555.84;5173361;29;20428;-73
2022/07/03 03:12:35;;;;;;;9.53;6.63;;;;;;;13.70;93.25;101564.56;5163582;29;20027;-74
2022/07/03 03:15:12;;;;;;;9.90;6.18;;;;;;;13.79;92.96;101561.84;5162492;29;20042;-74
2022/07/03 03:17:51;;;;;;;7.68;5.75;;;;;;;13.67;93.55;101560.25;5162518;29;20040;-75
2022/07/03 03:20:30;;;;;;;15.15;6.78;;;;;;;13.58;93.78;101568.22;5162087;29;20395;-74
2022/07/03 03:23:29;;;;;;;7.88;7.05;;;;;;;13.64;93.97;101573.41;5144706;29;20384;-74
2022/07/03 03:26:01;;;;;;;8.43;5.78;;;;;;;13.73;93.07;101564.53;5162115;29;20034;-75
2022/07/03 03:28:33;;;;;;;8.40;6.53;;;;;;;13.70;93.34;101568.09;5162138;29;20106;-75
2022/07/03 03:31:08;;;;;;;8.27;5.93;;;;;;;13.66;93.69;101561.13;5162004;29;20114;-75
2022/07/03 03:33:43;;;;;;;6.15;5.25;;;;;;;13.75;93.64;101574.13;5144894;29;20305;-76
2022/07/03 03:36:17;;;;;;;10.10;6.32;;;;;;;13.63;93.84;101577.75;5162182;29;20027;-75
2022/07/03 03:38:49;;;;;;;11.18;6.03;;;;;;;13.74;94.07;101572.38;5161926;29;20149;-75
2022/07/03 03:41:20;;;;;;;6.35;5.43;;;;;;;13.74;93.66;101579.38;5161917;29;20024;-75
2022/07/03 03:43:51;;;;;;;6.57;5.67;;;;;;;13.76;92.85;101573.22;5160624;29;20039;-75
2022/07/03 03:46:23;;;;;;;8.73;5.90;;;;;;;13.82;91.97;101582.75;5161789;29;20471;-75
2022/07/03 03:48:54;;;;;;;8.50;5.57;;;;;;;13.88;91.44;101580.06;5161906;29;20039;-75
2022/07/03 03:51:26;;;;;;;6.90;6.20;;;;;;;13.86;90.58;101573.94;5161899;29;20496;-75
2022/07/03 03:53:57;;;;;;;6.20;5.27;;;;;;;13.94;90.32;101573.84;5161800;29;20541;-75
2022/07/03 03:56:28;;;;;;;7.53;5.47;;;;;;;13.84;89.86;101581.84;5161736;29;20027;-75
2022/07/03 03:59:00;;;;;;;8.13;6.17;;;;;;;13.93;89.36;101573.00;5161956;29;20027;-75
2022/07/03 04:01:31;;;;;;;7.43;5.03;;;;;;;13.92;89.81;101576.50;5161891;29;20494;-74
2022/07/03 04:04:02;;;;;;;7.57;6.03;;;;;;;13.94;89.21;101566.88;5161919;29;20459;-74
2022/07/03 04:06:34;;;;;;;8.67;5.27;;;;;;;13.91;89.30;101573.91;5161778;29;20034;-74
2022/07/03 04:09:05;;;;;;;9.50;5.77;;;;;;;13.90;88.96;101574.81;5162144;29;20268;-74
2022/07/03 04:11:36;;;;;;;7.23;5.27;;;;;;;13.99;88.59;101572.91;5162390;29;20040;-73
2022/07/03 04:14:08;;;;;;;7.17;5.23;;;;;;;14.03;88.86;101578.97;5161260;28;20031;-73
2022/07/03 04:16:39;;;;;;;9.83;4.87;;;;;;;13.89;88.16;101576.53;5161711;29;20082;-74
2022/07/03 04:19:10;;;;;;;7.00;4.90;;;;;;;13.94;87.82;101586.97;5161556;29;20034;-74
2022/07/03 04:21:42;;;;;;;6.73;4.90;;;;;;;13.98;87.57;101581.66;5161638;29;20114;-73
2022/07/03 04:24:13;;;;;;;5.50;4.87;;;;;;;13.91;87.07;101579.13;5161034;29;20054;-74
2022/07/03 04:26:45;;;;;;;7.43;5.73;;;;;;;13.91;87.67;101579.13;5161218;29;20027;-74
2022/07/03 04:29:16;;;;;;;6.90;4.97;;;;;;;13.90;87.41;101580.03;5160813;29;20027;-76
2022/07/03 04:31:49;;;;;;;8.47;5.47;;;;;;;13.97;87.38;101581.69;5160609;29;20158;-74
2022/07/03 04:34:20;;;;;;;7.82;5.25;;;;;;;13.98;86.88;101583.41;5160789;29;20082;-75
2022/07/03 04:36:51;;;;;;;7.83;5.33;;;;;;;14.07;87.30;101582.41;5143558;29;20035;-75
2022/07/03 04:39:23;;;;;;;6.17;4.73;;;;;;;14.20;86.37;101590.09;5160612;29;20024;-75
2022/07/03 04:41:54;;;;;;;6.30;5.17;;;;;;;14.35;85.41;101590.75;5160809;29;20024;-76
2022/07/03 04:44:25;;;;;;;8.17;5.20;;;;;;;14.48;85.25;101591.41;5160814;29;20377;-75
2022/07/03 04:46:57;;;;;;;7.97;4.37;;;;;;;14.52;84.21;101599.22;5160626;29;20028;-75
2022/07/03 04:49:28;;;;;;;7.33;5.40;;;;;;;14.43;84.11;101609.84;5160756;29;20035;-76
2022/07/03 04:51:59;;;;;;;6.90;4.70;;;;;;;14.45;83.73;101604.56;5160997;29;20039;-75
2022/07/03 04:54:31;;;;;;;7.40;5.00;;;;;;;14.61;83.19;101607.84;5160570;29;20028;-73
2022/07/03 04:57:03;;;;;;;8.83;4.90;;;;;;;14.58;83.37;101603.47;5160526;29;20032;-74
2022/07/03 04:59:35;;;;;;;6.57;4.70;;;;;;;14.55;82.84;101604.41;5160682;29;20027;-73
2022/07/03 05:02:06;;;;;;;9.60;4.43;;;;;;;14.59;83.03;101613.97;5143200;29;20455;-75
2022/07/03 05:04:37;;;;;;;7.60;4.30;;;;;;;14.73;83.14;101605.91;5160587;29;20035;-74
2022/07/03 05:07:09;;;;;;;7.33;4.87;;;;;;;14.90;82.28;101605.59;5160901;29;20467;-74
2022/07/03 05:09:40;;;;;;;7.93;5.00;;;;;;;14.90;82.18;101602.97;5159746;29;20027;-74
2022/07/03 05:12:11;;;;;;;6.80;4.67;;;;;;;15.04;81.23;101600.09;5173010;29;20538;-74
2022/07/03 05:14:43;;;;;;;6.83;4.30;;;;;;;15.09;81.07;101605.25;5177407;28;20047;-74
2022/07/03 05:17:18;;;;;;;6.70;4.57;;;;;;;14.92;81.50;101601.19;5168378;28;20050;-75
2022/07/03 05:20:23;;;;;;;8.15;5.00;;;;;;;14.83;82.18;101603.09;5161179;29;20042;-75
2022/07/03 05:22:40;;;;;;;7.25;4.40;;;;;;;14.75;82.23;101609.34;5160523;29;20129;-74
2022/07/03 05:25:12;;;;;;;6.33;4.37;;;;;;;14.77;82.85;101618.06;5160080;29;20118;-74
2022/07/03 05:27:43;;;;;;;7.07;4.60;;;;;;;14.81;82.71;101612.75;5159783;28;20475;-74
2022/07/03 05:30:14;;;;;;;7.87;4.87;;;;;;;14.76;83.10;101611.09;5160609;29;20537;-75
2022/07/03 05:32:46;;;;;;;7.93;4.40;;;;;;;14.80;82.63;101611.91;5160525;29;20383;-74
2022/07/03 05:35:18;;;;;;;7.97;5.10;;;;;;;14.88;82.59;101614.41;5160613;29;20078;-75
2022/07/03 05:37:49;;;;;;;7.13;4.70;;;;;;;14.87;83.08;101616.13;5160154;29;20032;-74
2022/07/03 05:40:20;;;;;;;6.77;4.00;;;;;;;14.91;82.79;101617.81;5159886;29;20035;-74
2022/07/03 05:42:53;;;;;;;9.17;4.77;;;;;;;14.97;82.68;101621.22;5159923;29;20035;-74
2022/07/03 05:45:24;;;;;;;7.55;4.30;;;;;;;14.97;82.49;101629.09;5143141;29;20039;-75
2022/07/03 05:47:55;;;;;;;8.27;4.00;;;;;;;14.99;82.70;101627.31;5159734;29;20027;-73
2022/07/03 05:50:27;;;;;;;6.77;4.23;;;;;;;15.10;82.58;101620.09;5159699;29;20031;-74
2022/07/03 05:52:58;;;;;;;7.83;4.37;;;;;;;15.13;81.94;101620.06;5159872;29;20078;-74
2022/07/03 05:55:29;;;;;;;6.90;4.17;;;;;;;15.25;81.47;101622.47;5160001;29;20027;-74
2022/07/03 05:58:02;;;;;;;8.30;4.90;;;;;;;15.31;80.85;101621.47;5159746;29;20039;-74
2022/07/03 06:00:34;;;;;;;9.13;4.45;;;;;;;15.46;80.61;101625.56;5159692;29;20038;-73
2022/07/03 06:03:05;;;;;;;10.40;4.30;;;;;;;15.52;80.10;101630.72;5159495;29;20027;-72
2022/07/03 06:05:36;;;;;;;8.13;4.23;;;;;;;15.62;79.33;101628.78;5159901;29;20546;-75
2022/07/03 06:08:08;;;;;;;8.17;4.47;;;;;;;15.81;79.56;101634.50;5159698;29;20498;-74
2022/07/03 06:10:39;;;;;;;11.20;4.90;;;;;;;15.93;78.83;101642.16;5159629;29;20027;-75
2022/07/03 06:13:13;;;;;;;8.63;5.18;;;;;;;16.01;78.58;101640.22;5158559;29;20071;-76
2022/07/03 06:15:45;;;;;;;11.15;4.70;;;;;;;16.04;78.27;101641.94;5159225;29;20023;-77
2022/07/03 06:18:16;;;;;;;9.13;4.30;;;;;;;16.13;78.53;101644.38;5142406;29;20062;-75
2022/07/03 06:20:47;;;;;;;7.80;4.53;;;;;;;16.26;78.39;101644.97;5159580;29;20049;-75
2022/07/03 06:23:19;;;;;;;6.00;4.13;;;;;;;16.39;78.25;101641.13;5159405;29;20046;-74
2022/07/03 06:25:50;;;;;;;13.13;5.73;;;;;;;16.35;78.07;101636.81;5158989;29;20035;-75
2022/07/03 06:28:21;;;;;;;7.70;4.97;;;;;;;16.53;78.33;101637.31;5159444;29;20114;-76
2022/07/03 06:30:53;;;;;;;11.87;4.90;;;;;;;16.57;78.26;101644.22;5159302;29;20440;-75
2022/07/03 06:33:24;;;;;;;7.43;4.73;;;;;;;16.63;78.07;101646.72;5159198;29;20043;-75
2022/07/03 06:35:56;;;;;;;8.03;4.13;;;;;;;16.54;77.98;101644.31;5159265;29;20024;-75
2022/07/03 06:38:27;;;;;;;6.10;3.97;;;;;;;16.54;78.50;101634.63;5159187;28;20118;-75
2022/07/03 06:40:58;;;;;;;17.17;6.00;;;;;;;16.65;78.66;101641.41;5159145;29;20027;-74
2022/07/03 06:43:30;;;;;;;7.97;4.80;;;;;;;16.79;78.74;101634.00;5159107;29;20039;-74
2022/07/03 06:46:02;;;;;;;9.33;4.60;;;;;;;16.83;78.03;101640.94;5159107;29;20076;-75
2022/07/03 06:48:34;;;;;;;5.90;3.80;;;;;;;16.92;77.41;101643.38;5159107;29;20023;-75
2022/07/03 06:51:05;;;;;;;12.07;4.50;;;;;;;16.92;77.49;101632.84;5157675;29;20079;-74
2022/07/03 06:53:36;;;;;;;7.57;4.57;;;;;;;16.86;77.39;101642.69;5158715;29;20519;-74
2022/07/03 06:56:07;;;;;;;12.83;4.60;;;;;;;17.12;77.31;101642.84;5158809;29;20038;-74
2022/07/03 06:58:39;;;;;;;9.13;4.37;;;;;;;17.35;76.29;101651.06;5158744;29;20422;-75
2022/07/03 07:01:10;;;;;;;7.53;3.93;;;;;;;17.48;75.35;101642.78;5158913;29;20062;-74
2022/07/03 07:03:41;;;;;;;8.00;4.30;;;;;;;17.44;75.21;101640.28;5158562;29;20059;-74
2022/07/03 07:06:13;;;;;;;6.57;4.30;;;;;;;17.40;74.99;101642.09;5159292;29;20026;-75
2022/07/03 07:08:44;;;;;;;10.03;4.73;;;;;;;17.54;74.99;101638.25;5159478;29;20070;-74
2022/07/03 07:11:16;;;;;;;10.00;4.07;;;;;;;17.53;75.21;101640.00;5159609;29;20027;-75
2022/07/03 07:14:05;;;;;;;6.47;3.87;;;;;;;17.63;74.88;101652.03;5159539;29;20035;-74
2022/07/03 07:16:37;;;;;;;11.43;4.28;;;;;;;17.54;73.93;101641.72;5164452;29;20027;-74
2022/07/03 07:19:08;;;;;;;6.43;4.00;;;;;;;17.62;73.62;101638.88;5176631;29;20042;-74
2022/07/03 07:21:40;;;;;;;8.77;4.30;;;;;;;17.63;73.88;101640.63;5176488;28;20287;-75
2022/07/03 07:24:11;;;;;;;6.97;4.07;;;;;;;17.78;74.26;101642.78;5162601;29;20031;-74
2022/07/03 07:26:48;;;;;;;6.73;3.67;;;;;;;17.80;72.66;101648.88;5162862;29;20452;-74
2022/07/03 07:29:20;;;;;;;7.85;4.72;;;;;;;17.84;72.84;101649.69;5161355;29;20114;-76
2022/07/03 07:31:54;;;;;;;8.43;4.60;;;;;;;17.88;71.63;101655.75;5160128;29;20134;-75
2022/07/03 07:34:25;;;;;;;8.10;3.90;;;;;;;17.98;72.23;101658.09;5159947;29;20111;-75
2022/07/03 07:36:56;;;;;;;7.33;3.80;;;;;;;18.26;71.08;101666.91;5159725;29;20219;-76
2022/07/03 07:39:28;;;;;;;8.57;3.80;;;;;;;18.30;71.03;101660.63;5160865;29;20058;-77
2022/07/03 07:41:59;;;;;;;8.33;3.60;;;;;;;18.44;70.23;101665.50;5160572;29;20079;-75
2022/07/03 07:44:31;;;;;;;7.30;3.73;;;;;;;18.28;69.56;101663.31;5160431;29;20027;-75
2022/07/03 07:47:02;;;;;;;6.83;4.03;;;;;;;18.21;70.00;101667.94;5158666;29;20155;-76
2022/07/03 07:49:33;;;;;;;5.70;3.50;;;;;;;18.32;70.90;101664.09;5159126;28;20507;-76
2022/07/03 07:52:05;;;;;;;8.07;4.37;;;;;;;18.47;70.56;101666.25;5163220;29;20106;-75
2022/07/03 07:54:36;;;;;;;6.93;3.80;;;;;;;18.46;70.03;101655.75;5162502;29;20036;-76
2022/07/03 07:57:08;;;;;;;7.03;3.53;;;;;;;18.57;70.16;101650.97;5163500;29;20027;-74
2022/07/03 07:59:39;;;;;;;10.90;5.07;;;;;;;18.67;68.95;101660.31;5162898;29;20079;-74
2022/07/03 08:07:51;;;;;;;6.60;3.78;;;;;;;18.85;68.89;101661.53;5162299;29;20031;-75
2022/07/03 08:10:23;;;;;;;8.77;3.53;;;;;;;18.95;67.11;101662.94;5162478;29;20027;-75
2022/07/03 08:12:54;;;;;;;7.72;3.90;;;;;;;18.93;66.89;101663.91;5162388;29;20141;-77
2022/07/03 08:15:25;;;;;;;8.30;4.00;;;;;;;19.15;67.07;101668.47;5169993;29;20031;-75
2022/07/03 08:17:57;;;;;;;4.70;3.50;;;;;;;19.35;66.54;101670.41;5178519;29;20059;-74
2022/07/03 08:20:29;;;;;;;6.37;3.40;;;;;;;19.36;65.83;101666.84;5177465;29;20056;-75
2022/07/03 08:23:00;;;;;;;8.27;4.43;;;;;;;19.17;65.03;101667.47;5166490;29;20111;-75
2022/07/03 08:25:33;;;;;;;8.77;3.83;;;;;;;19.22;65.90;101668.19;5156734;29;20342;-78
2022/07/03 08:28:05;;;;;;;7.88;4.25;;;;;;;19.44;65.81;101662.16;5153057;29;20338;-77
2022/07/03 08:30:36;;;;;;;6.10;3.43;;;;;;;19.79;65.26;101666.16;5143397;29;20043;-76
2022/07/03 08:33:08;;;;;;;6.37;3.53;;;;;;;19.62;64.81;101666.75;5144476;29;20490;-75
2022/07/03 08:35:39;;;;;;;11.37;4.50;;;;;;;19.47;65.77;101668.19;5142835;29;20031;-76
2022/07/03 08:38:11;;;;;;;5.97;4.17;;;;;;;19.61;66.40;101662.41;5142287;29;20027;-77
2022/07/03 08:40:44;;;;;;;6.55;3.63;;;;;;;19.87;65.38;101668.53;5142361;29;20186;-75
2022/07/03 08:43:17;;;;;;;7.75;3.83;;;;;;;19.57;65.02;101662.56;5141817;29;20031;-76
2022/07/03 08:45:48;;;;;;;9.10;3.97;;;;;;;19.62;64.70;101664.09;5141359;29;20119;-76
2022/07/03 08:48:22;;;;;;;5.40;3.47;;;;;;;19.70;63.19;101670.91;5141680;29;20451;-76
2022/07/03 08:50:53;;;;;;;7.10;3.88;;;;;;;19.82;63.37;101665.22;5141470;29;20024;-75
2022/07/03 08:53:25;;;;;;;6.87;4.10;;;;;;;19.76;62.44;101665.44;5136344;29;20028;-75
2022/07/03 08:55:56;;;;;;;6.43;3.70;;;;;;;20.06;63.45;101665.16;5130256;29;20016;-75
2022/07/03 08:58:30;;;;;;;6.53;3.40;;;;;;;20.13;62.62;101661.38;5136374;29;20428;-76
2022/07/03 09:01:01;;;;;;;6.05;2.97;;;;;;;20.38;62.65;101664.78;5139658;29;20055;-75
2022/07/03 09:03:33;;;;;;;6.67;3.20;;;;;;;20.63;61.68;101660.28;5149118;29;20522;-75
2022/07/03 09:06:05;;;;;;;6.72;3.40;;;;;;;21.00;60.44;101662.28;5160024;29;20132;-76
2022/07/03 09:08:39;;;;;;;6.57;3.78;;;;;;;20.79;60.07;101655.25;5160657;29;20031;-74
2022/07/03 09:11:11;;;;;;;7.35;3.65;;;;;;;20.22;60.67;101655.69;5161426;29;20034;-75
2022/07/03 09:13:42;;;;;;;6.67;2.90;;;;;;;20.15;61.99;101654.22;5160071;29;20534;-75
2022/07/03 09:16:15;;;;;;;9.53;4.00;;;;;;;20.00;61.95;101656.56;5148684;29;20467;-77
2022/07/03 09:18:47;;;;;;;5.57;3.60;;;;;;;20.56;64.37;101662.31;5139881;29;20028;-76
2022/07/03 09:21:20;;;;;;;7.10;3.07;;;;;;;20.95;60.94;101659.81;5141622;29;20098;-77
2022/07/03 09:23:51;;;;;;;6.20;3.08;;;;;;;21.07;60.02;101655.78;5143185;29;20024;-75
2022/07/03 09:26:27;;;;;;;7.40;3.70;;;;;;;21.30;58.65;101657.44;5155573;29;20589;-74
2022/07/03 09:28:58;;;;;;;7.93;3.42;;;;;;;21.24;58.27;101665.66;5158795;29;20122;-76
2022/07/03 09:31:31;;;;;;;6.30;3.17;;;;;;;21.19;58.27;101665.00;5152157;29;20123;-76
2022/07/03 09:34:09;;;;;;;7.07;3.22;;;;;;;21.25;57.69;101663.84;5142629;29;20063;-76
2022/07/03 09:36:44;;;;;;;5.55;2.72;;;;;;;21.49;57.71;101673.44;5141108;29;20032;-77
2022/07/03 09:39:25;;;;;;;5.40;3.05;;;;;;;21.23;55.77;101678.97;5139046;29;20163;-75
2022/07/03 09:42:07;;;;;;;5.15;2.53;;;;;;;21.37;57.22;101681.91;5139661;29;20099;-78
2022/07/03 09:44:47;;;;;;;5.20;3.25;;;;;;;21.76;55.52;101688.19;5140758;29;20118;-76
2022/07/03 09:47:21;;;;;;;6.43;2.72;;;;;;;22.22;53.79;101681.59;5142031;29;20042;-77
2022/07/03 09:50:13;;;;;;;10.00;3.05;;;;;;;22.69;54.52;101682.91;5138623;29;20039;-76
2022/07/03 09:52:46;;;;;;;;;;;;;;;23.02;54.14;101684.78;5140422;29;20476;-76
2022/07/03 09:55:19;;;;;;;7.33;3.50;;;;;;;22.50;54.21;101679.44;5139514;29;20021;-76
2022/07/03 09:57:50;;;;;;;6.75;3.35;;;;;;;22.56;54.93;101677.31;5139840;29;20051;-76
2022/07/03 10:00:23;;;;;;;6.03;3.20;;;;;;;22.53;54.06;101688.09;5140587;29;20067;-77
2022/07/03 10:03:09;;;;;;;6.65;2.90;;;;;;;22.55;54.11;101682.72;5140053;29;20038;-76
2022/07/03 10:05:42;;;;;;;5.80;3.03;;;;;;;22.92;53.43;101678.22;5139905;29;20099;-76
2022/07/03 10:08:17;;;;;;;8.30;3.05;;;;;;;23.28;51.57;101670.19;5139786;29;20470;-75
2022/07/03 10:10:49;;;;;;;4.68;2.75;;;;;;;23.90;51.19;101668.75;5140934;29;20098;-76
2022/07/03 10:13:23;;;;;;;3.97;2.13;;;;;;;24.97;46.80;101674.22;5139968;29;20518;-76
2022/07/03 10:15:56;;;;;;;4.30;2.78;;;;;;;25.72;43.56;101672.31;5140203;29;20031;-76
2022/07/03 10:18:31;;;;;;;6.13;2.88;;;;;;;25.58;44.48;101669.66;5138742;29;20032;-77
2022/07/03 10:21:05;;;;;;;4.65;2.20;;;;;;;25.33;45.35;101676.50;5139330;29;20026;-75
2022/07/03 10:23:37;;;;;;;4.28;1.98;;;;;;;24.22;45.31;101688.25;5138886;29;20483;-76
2022/07/03 10:26:09;;;;;;;5.88;2.33;;;;;;;23.45;48.41;101685.25;5139326;29;20034;-77
2022/07/03 10:28:42;;;;;;;5.80;2.38;;;;;;;23.34;49.18;101684.97;5140028;29;20023;-77
2022/07/03 10:31:14;;;;;;;5.65;2.35;;;;;;;24.01;48.59;101684.97;5140526;29;20487;-79
2022/07/03 10:33:46;;;;;;;5.83;2.17;;;;;;;24.79;47.71;101694.84;5138593;29;20038;-78
2022/07/03 10:36:18;;;;;;;6.72;2.80;;;;;;;23.99;46.68;101686.88;5138705;29;20179;-76
2022/07/03 10:38:54;;;;;;;4.63;2.60;;;;;;;23.51;47.92;101700.06;5139097;29;20027;-76
2022/07/03 10:47:47;;;;;;;4.25;2.00;;;;;;;23.72;46.20;101703.38;5138966;29;20535;-76
2022/07/03 10:50:23;;;;;;;4.43;2.17;;;;;;;22.77;47.66;101709.94;5145289;29;20351;-77
2022/07/03 10:53:23;;;;;;;4.47;1.90;;;;;;;22.32;48.98;101705.94;5156805;29;20125;-79
2022/07/03 10:56:03;;;;;;;9.60;2.20;;;;;;;23.50;48.60;101698.31;5162245;29;20424;-78
2022/07/03 10:58:57;;;;;;;4.88;1.77;;;;;;;23.56;46.09;101694.47;5157205;29;20468;-77
2022/07/03 11:01:32;;;;;;;6.20;2.58;;;;;;;22.98;47.25;101695.69;5138944;29;20134;-77
2022/07/03 11:04:03;;;;;;;3.83;2.60;;;;;;;22.55;48.87;101702.16;5138687;29;20023;-76
2022/07/03 11:06:43;;;;;;;5.17;2.30;;;;;;;22.32;49.67;101694.47;5138251;29;20039;-77
2022/07/03 11:09:15;;;;;;;5.38;2.17;;;;;;;22.08;50.20;101699.09;5138424;29;20102;-76
2022/07/03 11:11:57;;;;;;;5.63;2.97;;;;;;;22.38;50.11;101692.38;5138775;29;20230;-76
2022/07/03 11:14:29;;;;;;;5.57;2.50;;;;;;;23.69;47.13;101684.03;5130036;29;20047;-76
2022/07/03 11:17:16;;;;;;;;;;;;;;;26.19;44.03;101684.50;5133809;29;20337;-76
2022/07/03 11:22:57;;;;;;;3.95;1.90;;;;;;;27.09;37.33;101682.13;5134353;29;20039;-76
2022/07/03 11:25:46;;;;;;;4.20;2.08;;;;;;;25.59;40.97;101672.22;5138680;29;20035;-74
2022/07/03 11:28:32;;;;;;;5.80;2.17;;;;;;;25.21;41.96;101666.53;5140838;29;20111;-76
2022/07/03 11:31:16;;;;;;;5.15;2.28;;;;;;;24.13;43.49;101678.09;5141577;29;20440;-77
2022/07/03 11:33:56;;;;;;;2.70;1.45;;;;;;;24.16;43.94;101670.78;5141265;29;20031;-78
2022/07/03 11:36:32;;;;;;;4.28;1.52;;;;;;;25.01;41.86;101671.28;5158073;29;20028;-75
2022/07/03 11:39:09;;;;;;;2.70;1.40;;;;;;;25.87;39.92;101659.81;5159235;29;20047;-77
2022/07/03 11:41:42;;;;;;;3.50;1.63;;;;;;;29.21;36.14;101665.00;5150885;29;20031;-77
2022/07/03 11:44:16;;;;;;;5.78;2.40;;;;;;;27.60;36.35;101670.59;5141991;29;20024;-76
2022/07/03 11:46:50;;;;;;;5.30;3.03;;;;;;;25.58;41.67;101665.19;5141775;29;20031;-76
2022/07/03 11:49:24;;;;;;;7.88;3.50;;;;;;;24.20;44.24;101675.00;5142099;29;20035;-75
2022/07/03 11:51:58;;;;;;;5.05;2.65;;;;;;;23.95;46.36;101680.84;5142491;29;20036;-75
2022/07/03 11:54:32;;;;;;;7.47;2.78;;;;;;;26.91;40.81;101675.34;5142255;29;20023;-76
2022/07/03 11:57:05;;;;;;;3.78;2.20;;;;;;;29.10;36.23;101671.16;5142889;29;20107;-77
2022/07/03 11:59:37;;;;;;;6.55;2.53;;;;;;;27.62;36.76;101663.28;5142163;29;20024;-77
2022/07/03 12:02:08;;;;;;;;;;;;;;;27.66;38.25;101680.03;5141781;29;20043;-76
2022/07/03 12:04:40;;;;;;;4.20;2.00;;;;;;;25.80;39.63;101678.03;5142344;29;19997;-78
2022/07/03 12:07:11;;;;;;;3.40;1.70;;;;;;;25.19;41.18;101671.13;5142465;29;20283;-76
2022/07/03 12:09:49;;;;;;;3.50;1.83;;;;;;;24.92;41.96;101671.81;5142104;29;20032;-78
2022/07/03 12:12:26;;;;;;;5.35;1.83;;;;;;;24.61;42.68;101676.28;5142184;29;20748;-79
2022/07/03 12:14:58;;;;;;;6.05;1.80;;;;;;;23.96;44.04;101677.25;5141773;29;20035;-77